Time;durP1;ratioP1;P1;durP2;ratioP2;P2;SDS_P1;SDS_P2;PMS_P1;PMS_P2;Temp;Humidity;BMP_temperature;BMP_pressure;BME280_temperature;BME280_humidity;BME280_pressure;Samples;Min_cycle;Max_cycle;Signal;HPM_P1;HPM_P2
2022/10/12 00:00:22;;;;;;;19.80;17.70;;;14.20;99.90;;;;;;4999121;28;21185;-81
2022/10/12 00:02:48;;;;;;;20.30;16.87;;;14.10;99.90;;;;;;5012885;28;20452;-80
2022/10/12 00:05:15;;;;;;;21.37;18.23;;;14.10;99.90;;;;;;5008403;28;20460;-82
2022/10/12 00:07:42;;;;;;;20.53;18.47;;;14.00;99.90;;;;;;4999364;28;20473;-82
2022/10/12 00:10:09;;;;;;;19.33;17.30;;;14.00;99.90;;;;;;4999549;28;20450;-82
2022/10/12 00:12:36;;;;;;;22.03;17.57;;;13.90;99.90;;;;;;4999898;28;20443;-82
2022/10/12 00:15:03;;;;;;;21.00;18.77;;;13.90;99.90;;;;;;5009168;28;20650;-81
2022/10/12 00:17:31;;;;;;;21.90;19.37;;;13.90;99.90;;;;;;5012367;28;20486;-80
2022/10/12 00:19:58;;;;;;;19.20;17.20;;;13.90;99.90;;;;;;5012086;28;20482;-82
2022/10/12 00:22:25;;;;;;;24.13;19.10;;;13.90;99.90;;;;;;5001317;28;20448;-82
2022/10/12 00:24:53;;;;;;;20.70;18.00;;;13.80;99.90;;;;;;4999883;28;20451;-81
2022/10/12 00:27:20;;;;;;;20.53;18.37;;;13.80;99.90;;;;;;5003201;28;20468;-81
2022/10/12 00:29:46;;;;;;;20.60;16.57;;;13.80;99.90;;;;;;5011693;28;20463;-80
2022/10/12 00:32:14;;;;;;;21.20;18.30;;;13.80;99.90;;;;;;5015691;28;20447;-79
2022/10/12 00:34:42;;;;;;;20.27;17.07;;;13.80;99.90;;;;;;5011373;28;20443;-80
2022/10/12 00:37:08;;;;;;;23.43;18.80;;;13.80;99.90;;;;;;5005890;28;21031;-81
2022/10/12 00:39:35;;;;;;;19.47;17.20;;;13.70;99.90;;;;;;5001760;28;20479;-80
2022/10/12 00:42:02;;;;;;;20.30;18.23;;;13.70;99.90;;;;;;4999555;28;20968;-81
2022/10/12 00:44:38;;;;;;;19.20;17.13;;;13.70;99.90;;;;;;5013468;28;20439;-79
2022/10/12 00:47:09;;;;;;;19.00;16.87;;;13.70;99.90;;;;;;5004644;28;20515;-81
2022/10/12 00:49:37;;;;;;;23.07;18.57;;;13.60;99.90;;;;;;4998493;28;20435;-81
2022/10/12 00:52:08;;;;;;;24.33;19.20;;;13.60;99.90;;;;;;4999199;28;20463;-81
2022/10/12 00:54:39;;;;;;;22.13;18.90;;;13.60;99.90;;;;;;4997988;28;20454;-81
2022/10/12 00:57:09;;;;;;;19.30;17.20;;;13.60;99.90;;;;;;4998629;28;20936;-81
2022/10/12 00:59:40;;;;;;;24.20;18.80;;;13.60;99.90;;;;;;5001937;28;20452;-80
2022/10/12 01:02:07;;;;;;;22.90;17.33;;;13.60;99.90;;;;;;5005076;28;20423;-81
2022/10/12 01:04:34;;;;;;;21.70;17.20;;;13.60;99.90;;;;;;4998928;28;20473;-82
2022/10/12 01:07:01;;;;;;;19.17;16.97;;;13.60;99.90;;;;;;4998260;28;20475;-82
2022/10/12 01:09:30;;;;;;;18.67;16.77;;;13.50;99.90;;;;;;4998599;28;20449;-82
2022/10/12 01:11:57;;;;;;;23.57;17.90;;;13.50;99.90;;;;;;4998546;28;20908;-82
2022/10/12 01:14:25;;;;;;;19.67;16.83;;;13.50;99.90;;;;;;4998168;28;20456;-81
2022/10/12 01:16:58;;;;;;;23.17;18.30;;;13.50;99.90;;;;;;4997562;28;20458;-80
2022/10/12 01:19:48;;;;;;;20.73;17.83;;;13.60;99.90;;;;;;4997849;28;20830;-82
2022/10/12 01:22:19;;;;;;;27.60;17.50;;;13.50;99.90;;;;;;4998030;28;20448;-81
2022/10/12 01:24:51;;;;;;;25.00;18.57;;;13.40;99.90;;;;;;4997225;28;20455;-82
2022/10/12 01:27:39;;;;;;;20.20;17.70;;;13.30;99.90;;;;;;4997351;28;20475;-81
2022/10/12 01:30:20;;;;;;;23.90;18.83;;;13.30;99.90;;;;;;4997058;28;20978;-82
2022/10/12 01:33:04;;;;;;;24.60;18.80;;;13.30;99.90;;;;;;4996856;28;20451;-82
2022/10/12 01:35:37;;;;;;;21.47;19.00;;;13.40;99.90;;;;;;4997935;28;20986;-81
2022/10/12 01:38:10;;;;;;;21.60;19.20;;;13.40;99.90;;;;;;4998118;28;20482;-82
2022/10/12 01:40:44;;;;;;;21.80;19.07;;;13.30;99.90;;;;;;4996985;28;20479;-81
2022/10/12 01:43:10;;;;;;;26.10;20.37;;;13.20;99.90;;;;;;4996703;28;20440;-82
2022/10/12 01:45:38;;;;;;;22.93;20.50;;;13.20;99.90;;;;;;4997603;28;20478;-81
2022/10/12 01:48:06;;;;;;;23.10;18.73;;;13.20;99.90;;;;;;5000549;28;20479;-82
2022/10/12 01:50:40;;;;;;;21.00;18.90;;;13.20;99.90;;;;;;4998838;28;20444;-80
2022/10/12 01:53:16;;;;;;;25.13;19.30;;;13.20;99.90;;;;;;5014449;28;20465;-80
2022/10/12 01:55:50;;;;;;;22.97;19.17;;;13.20;99.90;;;;;;5007443;28;20443;-81
2022/10/12 01:58:32;;;;;;;22.63;19.30;;;13.20;99.90;;;;;;4998719;28;20555;-81
2022/10/12 02:01:10;;;;;;;22.47;18.60;;;13.20;99.90;;;;;;4998594;28;20488;-82
2022/10/12 02:03:43;;;;;;;23.00;18.50;;;13.20;99.90;;;;;;4998869;28;20915;-82
2022/10/12 02:06:14;;;;;;;23.50;19.07;;;13.20;99.90;;;;;;4998648;28;20833;-81
2022/10/12 02:08:46;;;;;;;26.07;18.77;;;13.20;99.90;;;;;;4999447;28;20459;-81
2022/10/12 02:11:16;;;;;;;20.47;17.37;;;13.20;99.90;;;;;;4999553;28;20451;-81
2022/10/12 02:13:47;;;;;;;25.50;20.13;;;13.10;99.90;;;;;;4999904;28;20518;-81
2022/10/12 02:16:19;;;;;;;24.37;19.00;;;13.00;99.90;;;;;;4999967;28;20442;-81
2022/10/12 02:18:50;;;;;;;22.63;20.33;;;13.00;99.90;;;;;;4999173;28;20483;-81
2022/10/12 02:21:20;;;;;;;21.53;19.30;;;12.90;99.90;;;;;;5011203;28;20554;-81
2022/10/12 02:23:49;;;;;;;21.83;18.97;;;12.90;99.90;;;;;;5010321;28;20458;-81
2022/10/12 02:26:17;;;;;;;22.70;19.00;;;12.80;99.90;;;;;;5009189;28;20455;-83
2022/10/12 02:28:45;;;;;;;24.50;18.63;;;12.80;99.90;;;;;;5008386;28;20485;-82
2022/10/12 02:31:24;;;;;;;22.97;19.40;;;12.70;99.90;;;;;;5010791;28;20478;-81
2022/10/12 02:33:57;;;;;;;23.00;19.43;;;12.70;99.90;;;;;;5010826;28;20465;-81
2022/10/12 02:36:32;;;;;;;23.30;19.57;;;12.70;99.90;;;;;;5010464;28;20451;-81
2022/10/12 02:39:04;;;;;;;23.53;18.97;;;12.70;99.90;;;;;;5003146;28;20557;-82
2022/10/12 02:41:36;;;;;;;23.60;19.67;;;12.70;99.90;;;;;;5002143;28;20491;-82
2022/10/12 02:44:07;;;;;;;22.90;20.60;;;12.70;99.90;;;;;;5001169;28;20428;-82
2022/10/12 02:46:37;;;;;;;21.73;19.53;;;12.70;99.90;;;;;;5001195;28;20509;-82
2022/10/12 02:49:04;;;;;;;22.23;19.70;;;12.80;99.90;;;;;;5001649;28;20483;-82
2022/10/12 02:51:33;;;;;;;27.67;19.33;;;12.80;99.90;;;;;;5001095;28;20809;-82
2022/10/12 02:54:01;;;;;;;24.67;19.87;;;12.80;99.90;;;;;;5000838;28;20458;-82
2022/10/12 02:56:27;;;;;;;24.00;19.67;;;12.90;99.90;;;;;;5001077;28;20462;-82
2022/10/12 02:58:55;;;;;;;23.27;20.77;;;12.90;99.90;;;;;;5000237;28;20472;-82
2022/10/12 03:01:21;;;;;;;24.73;19.97;;;13.00;99.90;;;;;;4999763;28;20502;-82
2022/10/12 03:03:50;;;;;;;23.30;20.70;;;13.00;99.90;;;;;;5001146;28;20455;-81
2022/10/12 03:06:18;;;;;;;25.40;19.53;;;13.00;99.90;;;;;;5004223;28;20447;-81
2022/10/12 03:08:45;;;;;;;25.97;19.40;;;13.00;99.90;;;;;;5002179;28;20812;-81
2022/10/12 03:11:13;;;;;;;25.67;19.83;;;13.00;99.90;;;;;;5003097;28;20453;-82
2022/10/12 03:13:40;;;;;;;22.00;19.80;;;13.00;99.90;;;;;;5006217;28;20462;-82
2022/10/12 03:16:10;;;;;;;24.30;19.10;;;13.10;99.90;;;;;;5021085;28;20446;-81
2022/10/12 03:18:38;;;;;;;24.10;17.07;;;13.10;99.90;;;;;;5025587;28;20477;-81
2022/10/12 03:21:06;;;;;;;22.50;19.77;;;13.20;99.90;;;;;;5028949;28;20478;-80
2022/10/12 03:23:33;;;;;;;22.43;19.40;;;13.20;99.90;;;;;;5023823;28;20454;-82
2022/10/12 03:25:59;;;;;;;20.17;17.90;;;13.20;99.90;;;;;;5028464;28;20454;-81
2022/10/12 03:28:26;;;;;;;20.60;18.20;;;13.30;99.90;;;;;;5024727;28;20466;-82
2022/10/12 03:30:53;;;;;;;21.80;19.60;;;13.30;99.90;;;;;;5021501;28;20510;-81
2022/10/12 03:33:20;;;;;;;21.10;17.70;;;13.30;99.90;;;;;;5023359;28;20497;-81
2022/10/12 03:35:48;;;;;;;21.03;18.93;;;13.30;99.90;;;;;;5030476;28;20443;-81
2022/10/12 03:38:17;;;;;;;20.80;18.60;;;13.30;99.90;;;;;;5031627;28;20839;-82
2022/10/12 03:40:44;;;;;;;21.83;19.53;;;13.30;99.90;;;;;;5024715;28;20458;-81
2022/10/12 03:43:12;;;;;;;25.80;20.70;;;13.30;99.90;;;;;;5035010;28;20442;-81
2022/10/12 03:45:39;;;;;;;22.20;19.23;;;13.30;99.90;;;;;;5033681;28;20449;-81
2022/10/12 03:48:06;;;;;;;22.77;19.07;;;13.30;99.90;;;;;;5022189;28;20505;-82
2022/10/12 03:50:34;;;;;;;23.80;17.97;;;13.30;99.90;;;;;;5020949;28;20462;-82
2022/10/12 03:53:01;;;;;;;25.30;19.20;;;13.40;99.90;;;;;;5019592;28;20447;-81
2022/10/12 03:55:29;;;;;;;23.80;17.93;;;13.30;99.90;;;;;;5019836;28;20457;-81
2022/10/12 03:57:56;;;;;;;22.60;18.50;;;13.30;99.90;;;;;;5019359;28;20466;-81
2022/10/12 04:00:23;;;;;;;21.67;19.47;;;13.30;99.90;;;;;;5019816;28;20443;-80
2022/10/12 04:02:50;;;;;;;21.40;17.53;;;13.20;99.90;;;;;;5035944;28;20466;-80
2022/10/12 04:05:17;;;;;;;24.47;18.93;;;13.20;99.90;;;;;;5026181;28;20442;-81
2022/10/12 04:07:46;;;;;;;20.43;17.87;;;13.10;99.90;;;;;;5020396;28;20478;-82
2022/10/12 04:10:13;;;;;;;19.87;17.73;;;13.20;99.90;;;;;;5013398;28;20499;-82
2022/10/12 04:12:41;;;;;;;22.50;20.10;;;13.20;99.90;;;;;;5001270;28;20531;-81
2022/10/12 04:15:09;;;;;;;25.30;19.93;;;13.20;99.90;;;;;;5007670;28;20444;-81
2022/10/12 04:17:35;;;;;;;21.57;19.40;;;13.20;99.90;;;;;;5024959;28;20445;-83
2022/10/12 04:20:02;;;;;;;23.40;19.13;;;13.20;99.90;;;;;;5007364;28;20447;-81
2022/10/12 04:22:29;;;;;;;27.53;19.13;;;13.20;99.90;;;;;;5001258;28;20838;-82
2022/10/12 04:24:56;;;;;;;23.97;19.10;;;13.20;99.90;;;;;;5000739;28;20451;-82
2022/10/12 04:27:23;;;;;;;22.40;18.10;;;13.20;99.90;;;;;;5011974;28;20469;-82
2022/10/12 04:29:51;;;;;;;18.90;16.97;;;13.20;99.90;;;;;;5008474;28;20444;-82
2022/10/12 04:32:17;;;;;;;23.57;18.73;;;13.20;99.90;;;;;;5010426;28;20449;-82
2022/10/12 04:34:44;;;;;;;28.27;18.87;;;13.30;99.90;;;;;;5004281;28;20450;-82
2022/10/12 04:37:11;;;;;;;20.10;17.97;;;13.30;99.90;;;;;;5000608;28;20476;-81
2022/10/12 04:39:37;;;;;;;21.00;17.83;;;13.30;99.90;;;;;;5006194;28;20443;-82
2022/10/12 04:42:05;;;;;;;21.00;17.33;;;13.40;99.90;;;;;;4999301;28;20487;-82
2022/10/12 04:44:32;;;;;;;27.00;20.70;;;13.40;99.90;;;;;;4999148;28;20455;-82
2022/10/12 04:47:00;;;;;;;23.50;18.77;;;13.50;99.90;;;;;;4998531;28;20439;-82
2022/10/12 04:49:27;;;;;;;20.20;17.97;;;13.50;99.90;;;;;;4998416;28;20436;-81
2022/10/12 04:51:54;;;;;;;23.10;20.57;;;13.50;99.90;;;;;;4999590;28;20443;-82
2022/10/12 04:54:21;;;;;;;22.07;18.10;;;13.50;99.90;;;;;;5012790;28;20447;-80
2022/10/12 04:56:48;;;;;;;25.53;20.30;;;13.60;99.90;;;;;;5008925;28;20446;-82
2022/10/12 04:59:15;;;;;;;19.23;17.27;;;13.60;99.90;;;;;;4999514;28;20449;-81
2022/10/12 05:01:42;;;;;;;21.50;19.20;;;13.60;99.90;;;;;;4999423;28;20490;-81
2022/10/12 05:04:10;;;;;;;20.70;18.60;;;13.70;99.90;;;;;;4998628;28;20450;-81
2022/10/12 05:06:36;;;;;;;24.10;21.30;;;13.70;99.90;;;;;;4999369;28;20447;-81
2022/10/12 05:09:04;;;;;;;23.43;18.90;;;13.60;99.90;;;;;;4998589;28;20466;-81
2022/10/12 05:11:30;;;;;;;20.57;17.70;;;13.70;99.90;;;;;;4998793;28;20851;-82
2022/10/12 05:13:57;;;;;;;26.13;21.57;;;13.70;99.90;;;;;;4998510;28;20464;-82
2022/10/12 05:16:24;;;;;;;25.00;20.67;;;13.70;99.90;;;;;;4998163;28;20479;-81
2022/10/12 05:18:51;;;;;;;22.10;19.70;;;13.70;99.90;;;;;;4998281;28;21014;-81
2022/10/12 05:21:19;;;;;;;21.50;19.27;;;13.60;99.90;;;;;;4998435;28;20494;-81
2022/10/12 05:23:50;;;;;;;27.17;21.83;;;13.70;99.90;;;;;;4998092;28;20507;-81
2022/10/12 05:26:16;;;;;;;24.90;19.30;;;13.70;99.90;;;;;;4998267;28;20455;-81
2022/10/12 05:28:43;;;;;;;23.10;20.20;;;13.80;99.90;;;;;;4998013;28;20474;-82
2022/10/12 05:31:10;;;;;;;24.77;19.17;;;13.80;99.90;;;;;;4999396;28;20455;-80
2022/10/12 05:33:37;;;;;;;20.33;18.13;;;13.80;99.90;;;;;;5000788;28;20454;-82
2022/10/12 05:36:04;;;;;;;20.97;18.33;;;13.80;99.90;;;;;;5003114;28;20455;-82
2022/10/12 05:38:32;;;;;;;20.83;18.63;;;13.80;99.90;;;;;;5002431;28;20471;-81
2022/10/12 05:40:59;;;;;;;23.60;18.30;;;13.80;99.90;;;;;;5002651;28;20458;-81
2022/10/12 05:43:25;;;;;;;24.70;20.30;;;13.80;99.90;;;;;;5002279;28;20530;-82
2022/10/12 05:45:52;;;;;;;27.57;20.23;;;13.80;99.90;;;;;;5002296;28;20962;-81
2022/10/12 05:48:19;;;;;;;21.07;18.80;;;13.90;99.90;;;;;;5001489;28;20452;-82
2022/10/12 05:50:46;;;;;;;24.83;20.00;;;13.90;99.90;;;;;;5005048;28;20453;-83
2022/10/12 05:53:12;;;;;;;24.37;19.70;;;13.90;99.90;;;;;;5001932;28;20439;-80
2022/10/12 05:55:40;;;;;;;25.67;20.73;;;13.90;99.90;;;;;;5002414;28;20463;-82
2022/10/12 05:58:07;;;;;;;27.37;21.77;;;13.90;99.90;;;;;;5012341;28;20478;-80
2022/10/12 06:00:34;;;;;;;31.93;21.90;;;13.90;99.90;;;;;;4998642;28;20451;-80
2022/10/12 06:03:00;;;;;;;25.03;20.50;;;13.90;99.90;;;;;;4998581;28;20493;-80
2022/10/12 06:05:27;;;;;;;22.33;20.00;;;13.90;99.90;;;;;;5002366;28;20457;-81
2022/10/12 06:07:54;;;;;;;30.03;22.80;;;14.00;99.90;;;;;;5009678;28;20543;-82
2022/10/12 06:10:21;;;;;;;23.53;19.77;;;14.00;99.90;;;;;;5009512;28;20458;-82
2022/10/12 06:12:49;;;;;;;27.60;22.40;;;14.00;99.90;;;;;;5011322;28;20454;-80
2022/10/12 06:15:15;;;;;;;26.50;22.60;;;14.00;99.90;;;;;;5015247;28;20447;-79
2022/10/12 06:17:42;;;;;;;29.90;23.07;;;14.00;99.90;;;;;;5012187;28;20487;-81
2022/10/12 06:20:10;;;;;;;30.77;23.83;;;14.10;99.90;;;;;;5002945;28;20538;-84
2022/10/12 06:22:37;;;;;;;29.90;23.10;;;14.10;99.90;;;;;;5002748;28;20493;-81
2022/10/12 06:25:04;;;;;;;35.30;25.47;;;14.20;99.90;;;;;;5002063;28;20824;-82
2022/10/12 06:27:31;;;;;;;35.87;25.57;;;14.20;99.90;;;;;;5007990;28;20494;-81
2022/10/12 06:29:59;;;;;;;37.47;26.77;;;14.20;99.90;;;;;;5012135;28;20508;-81
2022/10/12 06:32:25;;;;;;;36.77;27.20;;;14.10;99.90;;;;;;5010013;28;20462;-81
2022/10/12 06:34:52;;;;;;;37.17;28.10;;;14.10;99.90;;;;;;5010531;28;20457;-80
2022/10/12 06:37:19;;;;;;;34.00;27.67;;;14.20;99.90;;;;;;5015948;28;20467;-82
2022/10/12 06:39:45;;;;;;;35.13;25.47;;;14.30;99.90;;;;;;5009728;28;20442;-82
2022/10/12 06:42:12;;;;;;;34.03;25.37;;;14.30;99.90;;;;;;5009143;28;20487;-82
2022/10/12 06:44:39;;;;;;;31.47;28.03;;;14.40;99.90;;;;;;5003967;28;20435;-83
2022/10/12 06:47:07;;;;;;;35.10;24.93;;;14.30;99.90;;;;;;5000969;28;20467;-82
2022/10/12 06:49:34;;;;;;;29.57;23.37;;;14.20;99.90;;;;;;4999841;28;20459;-83
2022/10/12 06:52:00;;;;;;;27.87;21.30;;;14.30;99.90;;;;;;5002543;28;20941;-82
2022/10/12 06:54:27;;;;;;;28.37;23.57;;;14.30;99.90;;;;;;5038218;28;20454;-83
2022/10/12 06:56:54;;;;;;;27.50;22.13;;;14.30;99.90;;;;;;5041315;28;20529;-81
2022/10/12 06:59:21;;;;;;;30.47;23.43;;;14.40;99.90;;;;;;5040494;28;20449;-82
2022/10/12 07:01:48;;;;;;;25.70;21.93;;;14.50;99.90;;;;;;5040662;28;20596;-82
2022/10/12 07:04:17;;;;;;;23.90;21.10;;;14.60;99.90;;;;;;5040318;28;20453;-82
2022/10/12 07:06:44;;;;;;;26.37;22.73;;;14.70;99.90;;;;;;5044888;28;20452;-81
2022/10/12 07:09:10;;;;;;;24.97;21.97;;;14.70;99.90;;;;;;5055715;28;20441;-83
2022/10/12 07:11:37;;;;;;;24.70;22.10;;;14.80;99.90;;;;;;5049009;28;20438;-80
2022/10/12 07:14:04;;;;;;;26.63;22.43;;;14.80;99.90;;;;;;5058915;28;20442;-81
2022/10/12 07:16:31;;;;;;;30.60;24.60;;;14.90;99.90;;;;;;5046761;28;20469;-83
2022/10/12 07:19:00;;;;;;;32.40;25.43;;;15.00;99.90;;;;;;5042828;28;20853;-83
2022/10/12 07:21:28;;;;;;;35.03;27.00;;;15.00;99.90;;;;;;5041563;28;20474;-80
2022/10/12 07:23:55;;;;;;;32.13;24.80;;;15.00;99.90;;;;;;5042150;28;20500;-79
2022/10/12 07:26:21;;;;;;;32.47;26.30;;;15.00;99.90;;;;;;5043364;28;20450;-79
2022/10/12 07:28:48;;;;;;;30.80;27.07;;;15.10;99.90;;;;;;5049077;28;20476;-79
2022/10/12 07:31:15;;;;;;;33.73;27.10;;;15.10;99.90;;;;;;5044363;28;20442;-80
2022/10/12 07:33:41;;;;;;;30.53;26.73;;;15.20;99.90;;;;;;5040945;28;20442;-82
2022/10/12 07:36:09;;;;;;;30.27;26.80;;;15.10;99.90;;;;;;5040871;28;20473;-82
2022/10/12 07:38:37;;;;;;;33.33;26.40;;;15.20;99.90;;;;;;5041101;28;20470;-82
2022/10/12 07:41:04;;;;;;;32.00;26.30;;;15.20;99.90;;;;;;5041441;28;20457;-82
2022/10/12 07:43:32;;;;;;;28.00;24.63;;;15.20;99.90;;;;;;5041020;28;20484;-82
2022/10/12 07:45:59;;;;;;;30.27;27.00;;;15.30;99.90;;;;;;5040636;28;20512;-80
2022/10/12 07:48:25;;;;;;;30.83;27.27;;;15.30;99.90;;;;;;5041427;28;20480;-81
2022/10/12 07:50:52;;;;;;;28.60;25.50;;;15.50;99.90;;;;;;5048286;28;20478;-81
2022/10/12 07:53:19;;;;;;;32.13;25.70;;;15.60;99.90;;;;;;5047347;28;20448;-81
2022/10/12 07:55:47;;;;;;;30.60;27.10;;;15.60;99.90;;;;;;5048131;28;20958;-80
2022/10/12 07:58:14;;;;;;;29.93;25.03;;;15.60;99.90;;;;;;5046974;28;20474;-81
2022/10/12 08:00:40;;;;;;;29.43;26.10;;;15.70;99.90;;;;;;5042378;28;20445;-82
2022/10/12 08:03:07;;;;;;;30.90;27.67;;;15.90;99.90;;;;;;5041803;28;20492;-81
2022/10/12 08:05:36;;;;;;;37.67;25.97;;;16.10;99.90;;;;;;5042833;28;20948;-81
2022/10/12 08:08:03;;;;;;;34.33;27.30;;;16.20;99.90;;;;;;5040002;28;20531;-81
2022/10/12 08:10:30;;;;;;;33.33;26.20;;;16.30;99.90;;;;;;5040500;28;20450;-82
2022/10/12 08:12:58;;;;;;;33.70;26.47;;;16.50;99.90;;;;;;5040924;28;20438;-81
2022/10/12 08:15:25;;;;;;;43.43;27.17;;;16.60;99.90;;;;;;5040284;28;20449;-79
2022/10/12 08:17:51;;;;;;;37.37;26.70;;;16.70;99.90;;;;;;5040870;28;20863;-82
2022/10/12 08:20:18;;;;;;;28.67;25.63;;;16.80;99.90;;;;;;5041320;28;20452;-81
2022/10/12 08:22:45;;;;;;;34.10;27.90;;;16.60;99.90;;;;;;5042944;28;20490;-82
2022/10/12 08:25:12;;;;;;;31.50;27.43;;;16.80;99.90;;;;;;5043327;28;20462;-81
2022/10/12 08:27:39;;;;;;;36.27;29.73;;;16.80;99.90;;;;;;5042882;28;20537;-82
2022/10/12 08:30:08;;;;;;;33.07;29.60;;;16.90;99.90;;;;;;5045947;28;20497;-79
2022/10/12 08:32:35;;;;;;;36.23;30.60;;;17.00;99.90;;;;;;5054487;28;20421;-81
2022/10/12 08:35:01;;;;;;;31.37;28.07;;;17.10;99.90;;;;;;5045799;28;20464;-81
2022/10/12 08:37:29;;;;;;;36.90;28.10;;;17.20;99.90;;;;;;5043543;28;20985;-81
2022/10/12 08:39:56;;;;;;;33.20;27.30;;;17.30;99.90;;;;;;5045186;28;20469;-81
2022/10/12 08:42:43;;;;;;;32.37;27.20;;;17.40;99.90;;;;;;5041020;28;20531;-81
2022/10/12 08:45:25;;;;;;;31.67;28.07;;;17.40;99.90;;;;;;5042908;28;20471;-81
2022/10/12 08:47:57;;;;;;;30.73;25.47;;;17.60;99.90;;;;;;5042225;28;20456;-82
2022/10/12 08:50:29;;;;;;;27.50;24.63;;;17.70;99.90;;;;;;5040881;28;20872;-81
2022/10/12 08:53:00;;;;;;;32.97;24.60;;;17.80;99.90;;;;;;5042839;28;20442;-81
2022/10/12 08:55:38;;;;;;;28.67;25.00;;;17.80;99.90;;;;;;5043192;28;20445;-81
2022/10/12 08:58:14;;;;;;;29.20;24.87;;;17.80;99.90;;;;;;5043903;28;20474;-81
2022/10/12 09:00:46;;;;;;;28.57;25.40;;;18.00;99.90;;;;;;5046200;28;20429;-81
2022/10/12 09:03:30;;;;;;;25.60;22.80;;;18.20;99.90;;;;;;5043513;28;20490;-82
2022/10/12 09:06:07;;;;;;;25.83;23.07;;;18.20;99.90;;;;;;5041453;28;20437;-82
2022/10/12 09:08:49;;;;;;;25.90;23.27;;;18.30;99.90;;;;;;5046238;28;20456;-81
2022/10/12 09:11:31;;;;;;;35.23;23.37;;;18.90;99.90;;;;;;5044624;28;20457;-81
2022/10/12 09:14:05;;;;;;;28.60;24.50;;;19.40;99.90;;;;;;5043253;28;20446;-81
2022/10/12 09:16:39;;;;;;;25.90;23.10;;;19.50;99.90;;;;;;5041530;28;20445;-81
2022/10/12 09:19:12;;;;;;;25.17;22.77;;;19.80;99.90;;;;;;5043148;22;21309;-84
2022/10/12 09:21:41;;;;;;;27.73;24.80;;;19.70;99.90;;;;;;5014434;28;20454;-84
2022/10/12 09:24:14;;;;;;;24.83;22.43;;;19.60;99.90;;;;;;5013809;28;20521;-82
2022/10/12 09:26:42;;;;;;;22.93;20.40;;;19.30;99.90;;;;;;5014020;28;20441;-82
2022/10/12 09:29:22;;;;;;;23.93;20.80;;;19.20;99.90;;;;;;5013629;28;20569;-82
2022/10/12 09:32:17;;;;;;;23.73;21.20;;;19.30;99.90;;;;;;5012978;28;20450;-82
2022/10/12 09:34:44;;;;;;;25.90;21.70;;;19.20;99.90;;;;;;5013457;28;20817;-82
2022/10/12 09:37:20;;;;;;;26.23;22.47;;;19.00;99.90;;;;;;5012763;28;20839;-83
2022/10/12 09:39:48;;;;;;;23.97;21.40;;;18.80;99.90;;;;;;5012785;28;20466;-82
2022/10/12 09:42:14;;;;;;;25.57;22.80;;;18.90;99.90;;;;;;5012782;28;20473;-82
2022/10/12 09:44:46;;;;;;;27.67;21.53;;;19.00;99.90;;;;;;5014746;28;20493;-82
2022/10/12 09:47:28;;;;;;;24.20;19.23;;;18.70;99.90;;;;;;5024468;28;20438;-82
2022/10/12 09:49:57;;;;;;;22.37;18.53;;;18.50;99.90;;;;;;5038969;28;20473;-82
2022/10/12 09:52:28;;;;;;;21.07;18.87;;;18.40;99.90;;;;;;5034563;28;20962;-83
2022/10/12 09:54:58;;;;;;;22.53;16.70;;;18.40;99.90;;;;;;5036575;28;20473;-82
2022/10/12 09:57:28;;;;;;;20.23;16.53;;;18.30;99.90;;;;;;5033517;28;20458;-82
2022/10/12 09:59:55;;;;;;;21.03;17.30;;;18.40;99.90;;;;;;5036331;28;20472;-82
2022/10/12 10:02:23;;;;;;;18.40;16.53;;;18.00;99.90;;;;;;5032459;28;20451;-82
2022/10/12 10:04:53;;;;;;;23.97;18.30;;;18.00;99.90;;;;;;5044594;28;20445;-82
2022/10/12 10:07:27;;;;;;;19.73;17.63;;;17.80;99.90;;;;;;5055127;28;20443;-82
2022/10/12 10:10:16;;;;;;;19.40;17.37;;;17.60;99.90;;;;;;5040212;28;20461;-84
2022/10/12 10:12:49;;;;;;;19.07;17.03;;;17.40;99.90;;;;;;5032263;28;20445;-82
2022/10/12 10:15:22;;;;;;;27.20;19.30;;;17.40;99.90;;;;;;5032756;28;20461;-82
2022/10/12 10:17:52;;;;;;;18.67;16.90;;;17.40;99.90;;;;;;5032026;28;20453;-82
2022/10/12 10:20:33;;;;;;;23.93;16.37;;;17.40;99.90;;;;;;5032281;28;20567;-82
2022/10/12 10:23:02;;;;;;;19.07;17.07;;;17.50;99.90;;;;;;5036378;28;20854;-84
2022/10/12 10:25:29;;;;;;;21.40;16.83;;;17.50;99.90;;;;;;5058458;28;20450;-84
2022/10/12 10:28:30;;;;;;;18.50;16.10;;;17.30;99.90;;;;;;5039480;28;20454;-84
2022/10/12 10:31:01;;;;;;;17.70;15.37;;;17.40;99.90;;;;;;5014646;28;20457;-82
2022/10/12 10:33:28;;;;;;;19.10;17.10;;;17.60;99.90;;;;;;5013663;28;20454;-82
2022/10/12 10:35:59;;;;;;;17.53;14.70;;;17.80;99.90;;;;;;5024396;28;20459;-82
2022/10/12 10:38:27;;;;;;;17.77;15.87;;;17.80;99.90;;;;;;5034770;28;20502;-82
2022/10/12 10:40:56;;;;;;;18.87;15.13;;;18.00;99.90;;;;;;5036022;28;20955;-82
2022/10/12 10:43:27;;;;;;;18.23;14.27;;;18.10;99.90;;;;;;5035845;28;20477;-83
2022/10/12 10:45:57;;;;;;;15.20;13.13;;;18.30;99.90;;;;;;5035035;28;20501;-82
2022/10/12 10:48:28;;;;;;;19.47;14.30;;;18.20;99.90;;;;;;5034482;28;20457;-84
2022/10/12 10:50:59;;;;;;;18.10;15.57;;;18.40;99.90;;;;;;5036058;28;20453;-83
2022/10/12 10:53:27;;;;;;;17.87;13.73;;;18.50;99.90;;;;;;5036086;28;20449;-84
2022/10/12 10:55:59;;;;;;;17.63;15.13;;;18.40;99.90;;;;;;5034825;28;20446;-84
2022/10/12 10:58:32;;;;;;;16.93;13.10;;;18.50;99.90;;;;;;5034220;28;20500;-84
2022/10/12 11:01:05;;;;;;;23.20;13.37;;;18.60;99.90;;;;;;5034424;28;20446;-83
2022/10/12 11:03:40;;;;;;;17.20;12.57;;;19.00;99.90;;;;;;5033325;28;20486;-83
2022/10/12 11:06:16;;;;;;;13.93;11.97;;;19.00;99.90;;;;;;5037121;28;20456;-83
2022/10/12 11:08:44;;;;;;;15.40;13.73;;;18.70;99.90;;;;;;5039858;28;20820;-83
2022/10/12 11:11:14;;;;;;;15.37;11.60;;;18.70;99.90;;;;;;5035165;28;20446;-83
2022/10/12 11:13:45;;;;;;;19.40;13.63;;;18.80;99.90;;;;;;5035498;28;20851;-83
2022/10/12 11:16:26;;;;;;;14.27;12.40;;;18.80;99.90;;;;;;5034489;28;20456;-83
2022/10/12 11:18:56;;;;;;;14.60;12.30;;;19.20;99.90;;;;;;5034771;28;20478;-83
2022/10/12 11:21:37;;;;;;;13.20;11.20;;;19.20;99.90;;;;;;5036863;28;20450;-84
2022/10/12 11:24:11;;;;;;;18.73;11.40;;;19.00;99.90;;;;;;5055901;28;20479;-82
2022/10/12 11:26:42;;;;;;;16.30;12.67;;;18.80;99.90;;;;;;5054819;28;20441;-82
2022/10/12 11:29:13;;;;;;;12.73;11.43;;;18.80;99.90;;;;;;5052989;28;20473;-82
2022/10/12 11:31:46;;;;;;;14.00;11.80;;;18.70;99.90;;;;;;5036301;28;20448;-82
2022/10/12 11:34:17;;;;;;;15.40;11.10;;;18.80;99.90;;;;;;5034277;28;20533;-82
2022/10/12 11:36:49;;;;;;;14.37;12.63;;;19.00;99.90;;;;;;5034377;28;20450;-82
2022/10/12 11:39:22;;;;;;;14.90;11.50;;;19.10;99.90;;;;;;5033066;28;20890;-83
2022/10/12 11:41:52;;;;;;;15.67;12.50;;;19.30;99.90;;;;;;5046023;28;20442;-82
2022/10/12 11:44:26;;;;;;;14.80;13.13;;;19.50;99.90;;;;;;5050554;28;20501;-82
2022/10/12 11:46:57;;;;;;;13.70;11.10;;;19.50;99.90;;;;;;5044097;28;20442;-82
2022/10/12 11:49:29;;;;;;;15.07;12.03;;;19.70;99.90;;;;;;5016814;28;20451;-82
2022/10/12 11:52:01;;;;;;;17.30;11.20;;;20.00;99.90;;;;;;5010463;28;20454;-83
2022/10/12 11:54:32;;;;;;;18.67;12.80;;;20.20;99.90;;;;;;5003513;28;20445;-83
2022/10/12 11:57:04;;;;;;;14.03;12.30;;;20.00;99.90;;;;;;5036135;28;20456;-82
2022/10/12 11:59:36;;;;;;;17.70;11.87;;;19.90;99.90;;;;;;5035181;28;20992;-82
2022/10/12 12:02:12;;;;;;;17.23;13.83;;;19.80;99.90;;;;;;5033681;28;20454;-82
2022/10/12 12:04:44;;;;;;;16.83;13.13;;;19.50;99.90;;;;;;5034076;28;20495;-82
2022/10/12 12:07:42;;;;;;;14.50;10.97;;;19.70;99.90;;;;;;5033193;28;20449;-82
2022/10/12 12:10:44;;;;;;;15.90;11.23;;;19.90;99.90;;;;;;5039599;28;20477;-82
2022/10/12 12:13:22;;;;;;;14.87;12.47;;;19.80;99.90;;;;;;5037525;28;20453;-82
2022/10/12 12:16:29;;;;;;;16.00;11.23;;;19.90;99.90;;;;;;5031917;28;20439;-83
2022/10/12 12:19:16;;;;;;;11.83;10.70;;;20.50;99.90;;;;;;5010212;28;20529;-83
2022/10/12 12:22:18;;;;;;;13.20;11.93;;;21.30;99.90;;;;;;4993873;28;20829;-82
2022/10/12 12:24:55;;;;;;;13.90;12.10;;;21.30;99.90;;;;;;5005132;28;20481;-83
2022/10/12 12:27:27;;;;;;;12.47;10.80;;;21.20;99.90;;;;;;5035637;28;20536;-84
2022/10/12 12:29:56;;;;;;;14.50;11.63;;;21.30;99.90;;;;;;5038902;28;20473;-84
2022/10/12 12:32:23;;;;;;;11.27;10.27;;;21.50;99.90;;;;;;5016017;28;20458;-84
2022/10/12 12:34:54;;;;;;;12.03;10.57;;;21.60;99.70;;;;;;5034055;28;20472;-85
2022/10/12 12:37:25;;;;;;;11.13;10.03;;;21.50;99.20;;;;;;5034155;28;20453;-86
2022/10/12 12:39:56;;;;;;;10.83;9.70;;;21.30;99.80;;;;;;5033376;28;21004;-85
2022/10/12 12:42:26;;;;;;;16.83;11.70;;;21.30;99.90;;;;;;5033632;28;20802;-84